sensor_id;sensor_type;location;lat;lon;timestamp;temperature;humidity
67893;DHT22;54688;52.376;16.744;2023-02-18T00:02:45;6.2;64.1
67893;DHT22;54688;52.376;16.744;2023-02-18T00:05:47;6.2;63.8
67893;DHT22;54688;52.376;16.744;2023-02-18T00:08:50;6.2;63.7
67893;DHT22;54688;52.376;16.744;2023-02-18T00:11:52;6.2;63.5
67893;DHT22;54688;52.376;16.744;2023-02-18T00:14:55;6.2;63.5
67893;DHT22;54688;52.376;16.744;2023-02-18T00:17:57;6.1;63.7
67893;DHT22;54688;52.376;16.744;2023-02-18T00:20:59;6.2;64.2
67893;DHT22;54688;52.376;16.744;2023-02-18T00:24:02;6.1;64.4
67893;DHT22;54688;52.376;16.744;2023-02-18T00:27:05;6.1;64.1
67893;DHT22;54688;52.376;16.744;2023-02-18T00:30:07;6.2;63.8
67893;DHT22;54688;52.376;16.744;2023-02-18T00:33:10;6.2;64.3
67893;DHT22;54688;52.376;16.744;2023-02-18T00:36:12;6.1;64
67893;DHT22;54688;52.376;16.744;2023-02-18T00:39:16;6.1;64.4
67893;DHT22;54688;52.376;16.744;2023-02-18T00:42:18;6.1;64.2
67893;DHT22;54688;52.376;16.744;2023-02-18T00:45:21;6.1;64.6
67893;DHT22;54688;52.376;16.744;2023-02-18T00:48:23;6;64.6
67893;DHT22;54688;52.376;16.744;2023-02-18T00:51:25;5.9;64.5
67893;DHT22;54688;52.376;16.744;2023-02-18T00:54:28;5.9;65.2
67893;DHT22;54688;52.376;16.744;2023-02-18T00:57:30;5.8;64.7
67893;DHT22;54688;52.376;16.744;2023-02-18T01:00:33;5.7;64.7
67893;DHT22;54688;52.376;16.744;2023-02-18T01:03:35;5.7;65
67893;DHT22;54688;52.376;16.744;2023-02-18T01:06:38;5.6;65.5
67893;DHT22;54688;52.376;16.744;2023-02-18T01:09:40;5.6;65.6
67893;DHT22;54688;52.376;16.744;2023-02-18T01:12:42;5.5;65.3
67893;DHT22;54688;52.376;16.744;2023-02-18T01:15:44;5.5;65.9
67893;DHT22;54688;52.376;16.744;2023-02-18T01:18:46;5.5;66.2
67893;DHT22;54688;52.376;16.744;2023-02-18T01:21:48;5.5;65.2
67893;DHT22;54688;52.376;16.744;2023-02-18T01:24:50;5.5;65.4
67893;DHT22;54688;52.376;16.744;2023-02-18T01:27:52;5.6;65.2
67893;DHT22;54688;52.376;16.744;2023-02-18T01:30:54;5.5;64.9
67893;DHT22;54688;52.376;16.744;2023-02-18T01:33:56;5.6;65.7
67893;DHT22;54688;52.376;16.744;2023-02-18T01:36:58;5.6;66.2
67893;DHT22;54688;52.376;16.744;2023-02-18T01:40:00;5.5;65.4
67893;DHT22;54688;52.376;16.744;2023-02-18T01:43:02;5.5;66.1
67893;DHT22;54688;52.376;16.744;2023-02-18T01:46:06;5.5;66
67893;DHT22;54688;52.376;16.744;2023-02-18T01:49:14;5.4;66.3
67893;DHT22;54688;52.376;16.744;2023-02-18T01:52:22;5.4;66.5
67893;DHT22;54688;52.376;16.744;2023-02-18T01:55:26;5.3;66.2
67893;DHT22;54688;52.376;16.744;2023-02-18T01:58:28;5.3;66.8
67893;DHT22;54688;52.376;16.744;2023-02-18T02:01:30;5.3;66.6
67893;DHT22;54688;52.376;16.744;2023-02-18T02:04:32;5.2;66.5
67893;DHT22;54688;52.376;16.744;2023-02-18T02:07:34;5.2;66.4
67893;DHT22;54688;52.376;16.744;2023-02-18T02:10:39;5.2;66.8
67893;DHT22;54688;52.376;16.744;2023-02-18T02:13:58;5.1;68
67893;DHT22;54688;52.376;16.744;2023-02-18T02:17:09;5.1;67.2
67893;DHT22;54688;52.376;16.744;2023-02-18T02:20:19;5.1;67.8
67893;DHT22;54688;52.376;16.744;2023-02-18T02:23:40;5.1;67.7
67893;DHT22;54688;52.376;16.744;2023-02-18T02:27:03;5.1;67.8
67893;DHT22;54688;52.376;16.744;2023-02-18T02:30:27;5.1;67.8
67893;DHT22;54688;52.376;16.744;2023-02-18T02:33:47;5.2;67.3
67893;DHT22;54688;52.376;16.744;2023-02-18T02:37:04;5.2;67.3
67893;DHT22;54688;52.376;16.744;2023-02-18T02:40:15;5.2;66.8
67893;DHT22;54688;52.376;16.744;2023-02-18T02:43:26;5.2;67.2
67893;DHT22;54688;52.376;16.744;2023-02-18T02:46:35;5.3;66.9
67893;DHT22;54688;52.376;16.744;2023-02-18T02:49:42;5.3;66.8
67893;DHT22;54688;52.376;16.744;2023-02-18T02:52:51;5.3;66.9
67893;DHT22;54688;52.376;16.744;2023-02-18T02:55:58;5.3;66.7
67893;DHT22;54688;52.376;16.744;2023-02-18T02:59:00;5.3;66.4
67893;DHT22;54688;52.376;16.744;2023-02-18T03:02:08;5.3;66.4
67893;DHT22;54688;52.376;16.744;2023-02-18T03:05:21;5.3;66
67893;DHT22;54688;52.376;16.744;2023-02-18T03:08:38;5.3;66.5
67893;DHT22;54688;52.376;16.744;2023-02-18T03:11:49;5.4;66.3
67893;DHT22;54688;52.376;16.744;2023-02-18T03:15:00;5.3;66.1
67893;DHT22;54688;52.376;16.744;2023-02-18T03:18:11;5.3;66
67893;DHT22;54688;52.376;16.744;2023-02-18T03:21:20;5.3;66.2
67893;DHT22;54688;52.376;16.744;2023-02-18T03:24:27;5.3;65.9
67893;DHT22;54688;52.376;16.744;2023-02-18T03:27:33;5.3;65.5
67893;DHT22;54688;52.376;16.744;2023-02-18T03:30:41;5.3;65.6
67893;DHT22;54688;52.376;16.744;2023-02-18T03:33:45;5.3;65.9
67893;DHT22;54688;52.376;16.744;2023-02-18T03:36:51;5.3;65.8
67893;DHT22;54688;52.376;16.744;2023-02-18T03:39:55;5.3;65.9
67893;DHT22;54688;52.376;16.744;2023-02-18T03:43:01;5.3;65.5
67893;DHT22;54688;52.376;16.744;2023-02-18T03:46:04;5.2;65.6
67893;DHT22;54688;52.376;16.744;2023-02-18T03:49:06;5.3;65.5
67893;DHT22;54688;52.376;16.744;2023-02-18T03:52:09;5.3;65.1
67893;DHT22;54688;52.376;16.744;2023-02-18T03:55:11;5.3;65.2
67893;DHT22;54688;52.376;16.744;2023-02-18T03:58:13;5.2;65.1
67893;DHT22;54688;52.376;16.744;2023-02-18T04:01:15;5.2;65.3
67893;DHT22;54688;52.376;16.744;2023-02-18T04:04:18;5.2;65.4
67893;DHT22;54688;52.376;16.744;2023-02-18T04:07:21;5.2;64.9
67893;DHT22;54688;52.376;16.744;2023-02-18T04:10:23;5.2;65.3
67893;DHT22;54688;52.376;16.744;2023-02-18T04:13:25;5.2;64.6
67893;DHT22;54688;52.376;16.744;2023-02-18T04:16:27;5.2;65.2
67893;DHT22;54688;52.376;16.744;2023-02-18T04:19:28;5.2;65.3
67893;DHT22;54688;52.376;16.744;2023-02-18T04:22:31;5.2;65.4
67893;DHT22;54688;52.376;16.744;2023-02-18T04:25:32;5.2;65.7
67893;DHT22;54688;52.376;16.744;2023-02-18T04:28:34;5.2;65.8
67893;DHT22;54688;52.376;16.744;2023-02-18T04:31:36;5.2;65.5
67893;DHT22;54688;52.376;16.744;2023-02-18T04:34:38;5.2;66
67893;DHT22;54688;52.376;16.744;2023-02-18T04:37:40;5.2;65.6
67893;DHT22;54688;52.376;16.744;2023-02-18T04:40:42;5.1;65.9
67893;DHT22;54688;52.376;16.744;2023-02-18T04:43:44;5.1;65.8
67893;DHT22;54688;52.376;16.744;2023-02-18T04:46:47;5.1;66.1
67893;DHT22;54688;52.376;16.744;2023-02-18T04:49:49;5.1;66.2
67893;DHT22;54688;52.376;16.744;2023-02-18T04:52:51;5.1;66.3
67893;DHT22;54688;52.376;16.744;2023-02-18T04:55:53;5.1;66.3
67893;DHT22;54688;52.376;16.744;2023-02-18T04:58:55;5;66
67893;DHT22;54688;52.376;16.744;2023-02-18T05:01:58;5;66
67893;DHT22;54688;52.376;16.744;2023-02-18T05:05:01;5;66.3
67893;DHT22;54688;52.376;16.744;2023-02-18T05:08:04;5;66.1
67893;DHT22;54688;52.376;16.744;2023-02-18T05:11:06;5;66.4
67893;DHT22;54688;52.376;16.744;2023-02-18T05:14:08;5;66.2
67893;DHT22;54688;52.376;16.744;2023-02-18T05:17:10;5;66.2
67893;DHT22;54688;52.376;16.744;2023-02-18T05:20:13;4.9;66.3
67893;DHT22;54688;52.376;16.744;2023-02-18T05:23:15;4.9;66.3
67893;DHT22;54688;52.376;16.744;2023-02-18T05:26:17;4.9;66.1
67893;DHT22;54688;52.376;16.744;2023-02-18T05:29:19;4.9;65.8
67893;DHT22;54688;52.376;16.744;2023-02-18T05:32:21;4.9;65.5
67893;DHT22;54688;52.376;16.744;2023-02-18T05:35:22;4.9;66.3
67893;DHT22;54688;52.376;16.744;2023-02-18T05:38:24;4.8;65.9
67893;DHT22;54688;52.376;16.744;2023-02-18T05:41:26;4.8;66.5
67893;DHT22;54688;52.376;16.744;2023-02-18T05:44:28;4.7;67
67893;DHT22;54688;52.376;16.744;2023-02-18T05:47:30;4.7;67.1
67893;DHT22;54688;52.376;16.744;2023-02-18T05:50:32;4.6;67.3
67893;DHT22;54688;52.376;16.744;2023-02-18T05:53:34;4.5;67.8
67893;DHT22;54688;52.376;16.744;2023-02-18T05:56:37;4.5;68.1
67893;DHT22;54688;52.376;16.744;2023-02-18T05:59:40;4.5;67.7
67893;DHT22;54688;52.376;16.744;2023-02-18T06:02:42;4.5;67.9
67893;DHT22;54688;52.376;16.744;2023-02-18T06:05:47;4.5;67.9
67893;DHT22;54688;52.376;16.744;2023-02-18T06:08:52;4.6;68.1
67893;DHT22;54688;52.376;16.744;2023-02-18T06:11:54;4.6;68
67893;DHT22;54688;52.376;16.744;2023-02-18T06:14:56;4.7;68.1
67893;DHT22;54688;52.376;16.744;2023-02-18T06:17:58;4.6;68.3
67893;DHT22;54688;52.376;16.744;2023-02-18T06:21:00;4.7;68.2
67893;DHT22;54688;52.376;16.744;2023-02-18T06:24:02;4.7;68.3
67893;DHT22;54688;52.376;16.744;2023-02-18T06:27:04;4.7;68.3
67893;DHT22;54688;52.376;16.744;2023-02-18T06:30:07;4.7;68
67893;DHT22;54688;52.376;16.744;2023-02-18T06:33:09;4.7;68.2
67893;DHT22;54688;52.376;16.744;2023-02-18T06:36:12;4.8;68.1
67893;DHT22;54688;52.376;16.744;2023-02-18T06:39:14;4.8;68.3
67893;DHT22;54688;52.376;16.744;2023-02-18T06:42:16;4.8;68
67893;DHT22;54688;52.376;16.744;2023-02-18T06:45:18;4.8;67.9
67893;DHT22;54688;52.376;16.744;2023-02-18T06:48:20;4.8;68.3
67893;DHT22;54688;52.376;16.744;2023-02-18T06:51:23;4.8;68.6
67893;DHT22;54688;52.376;16.744;2023-02-18T06:54:25;4.9;68.5
67893;DHT22;54688;52.376;16.744;2023-02-18T06:57:27;4.9;68
67893;DHT22;54688;52.376;16.744;2023-02-18T07:00:29;4.9;68.2
67893;DHT22;54688;52.376;16.744;2023-02-18T07:03:31;4.9;68.1
67893;DHT22;54688;52.376;16.744;2023-02-18T07:06:33;4.9;67.8
67893;DHT22;54688;52.376;16.744;2023-02-18T07:09:35;4.9;67.9
67893;DHT22;54688;52.376;16.744;2023-02-18T07:12:37;4.9;68.1
67893;DHT22;54688;52.376;16.744;2023-02-18T07:15:39;5;68.2
67893;DHT22;54688;52.376;16.744;2023-02-18T07:18:41;5;67.7
67893;DHT22;54688;52.376;16.744;2023-02-18T07:21:44;5;67.8
67893;DHT22;54688;52.376;16.744;2023-02-18T07:24:49;5;68.1
67893;DHT22;54688;52.376;16.744;2023-02-18T07:27:52;5.1;67.9
67893;DHT22;54688;52.376;16.744;2023-02-18T07:30:54;5.1;67.8
67893;DHT22;54688;52.376;16.744;2023-02-18T07:33:57;5.1;67.7
67893;DHT22;54688;52.376;16.744;2023-02-18T07:37:00;5.1;67.3
67893;DHT22;54688;52.376;16.744;2023-02-18T07:40:03;5.2;67.3
67893;DHT22;54688;52.376;16.744;2023-02-18T07:43:06;5.2;67.3
67893;DHT22;54688;52.376;16.744;2023-02-18T07:46:07;5.3;67
67893;DHT22;54688;52.376;16.744;2023-02-18T07:49:10;5.3;67
67893;DHT22;54688;52.376;16.744;2023-02-18T07:52:12;5.3;66.5
67893;DHT22;54688;52.376;16.744;2023-02-18T07:58:13;5.4;66.5
67893;DHT22;54688;52.376;16.744;2023-02-18T08:01:15;5.4;66.2
67893;DHT22;54688;52.376;16.744;2023-02-18T08:04:17;5.4;66
67893;DHT22;54688;52.376;16.744;2023-02-18T08:07:20;5.4;65.7
67893;DHT22;54688;52.376;16.744;2023-02-18T08:10:24;5.4;65.4
67893;DHT22;54688;52.376;16.744;2023-02-18T08:13:27;5.4;65.6
67893;DHT22;54688;52.376;16.744;2023-02-18T08:16:29;5.4;65.2
67893;DHT22;54688;52.376;16.744;2023-02-18T08:19:31;5.5;65.7
67893;DHT22;54688;52.376;16.744;2023-02-18T08:22:33;5.5;65.1
67893;DHT22;54688;52.376;16.744;2023-02-18T08:28:34;5.7;64.9
67893;DHT22;54688;52.376;16.744;2023-02-18T08:31:37;5.8;64.3
67893;DHT22;54688;52.376;16.744;2023-02-18T08:34:39;5.8;64.3
67893;DHT22;54688;52.376;16.744;2023-02-18T08:37:41;5.8;63.3
67893;DHT22;54688;52.376;16.744;2023-02-18T08:40:43;5.8;63.7
67893;DHT22;54688;52.376;16.744;2023-02-18T08:43:46;5.9;64
67893;DHT22;54688;52.376;16.744;2023-02-18T08:46:49;5.9;64.2
67893;DHT22;54688;52.376;16.744;2023-02-18T08:49:51;6;63.6
67893;DHT22;54688;52.376;16.744;2023-02-18T08:52:54;6.1;63.3
67893;DHT22;54688;52.376;16.744;2023-02-18T08:55:57;6.1;62.5
67893;DHT22;54688;52.376;16.744;2023-02-18T08:58:59;6.1;61.9
67893;DHT22;54688;52.376;16.744;2023-02-18T09:02:01;6.2;60.9
67893;DHT22;54688;52.376;16.744;2023-02-18T09:05:04;6.4;61.9
67893;DHT22;54688;52.376;16.744;2023-02-18T09:08:07;6.5;61.8
67893;DHT22;54688;52.376;16.744;2023-02-18T09:11:09;6.6;60.5
67893;DHT22;54688;52.376;16.744;2023-02-18T09:14:11;6.6;60.2
67893;DHT22;54688;52.376;16.744;2023-02-18T09:17:13;6.6;59.7
67893;DHT22;54688;52.376;16.744;2023-02-18T09:20:15;6.6;59
67893;DHT22;54688;52.376;16.744;2023-02-18T09:23:18;6.6;59.4
67893;DHT22;54688;52.376;16.744;2023-02-18T09:26:20;6.6;59.5
67893;DHT22;54688;52.376;16.744;2023-02-18T09:29:23;6.6;59.3
67893;DHT22;54688;52.376;16.744;2023-02-18T09:32:25;6.6;59
67893;DHT22;54688;52.376;16.744;2023-02-18T09:35:27;6.6;58.2
67893;DHT22;54688;52.376;16.744;2023-02-18T09:38:29;6.6;58.7
67893;DHT22;54688;52.376;16.744;2023-02-18T09:41:32;6.6;58
67893;DHT22;54688;52.376;16.744;2023-02-18T09:44:41;6.6;58.6
67893;DHT22;54688;52.376;16.744;2023-02-18T09:47:46;6.6;58.5
67893;DHT22;54688;52.376;16.744;2023-02-18T09:50:50;6.7;58.3
67893;DHT22;54688;52.376;16.744;2023-02-18T09:53:53;6.8;56.8
67893;DHT22;54688;52.376;16.744;2023-02-18T09:56:56;6.8;57.1
67893;DHT22;54688;52.376;16.744;2023-02-18T10:00:00;6.9;56.8
67893;DHT22;54688;52.376;16.744;2023-02-18T10:03:10;6.9;56.5
67893;DHT22;54688;52.376;16.744;2023-02-18T10:06:16;7;55.1
67893;DHT22;54688;52.376;16.744;2023-02-18T10:12:22;7.2;54.8
67893;DHT22;54688;52.376;16.744;2023-02-18T10:15:27;7.2;54.4
67893;DHT22;54688;52.376;16.744;2023-02-18T10:18:34;7.3;54.2
67893;DHT22;54688;52.376;16.744;2023-02-18T10:21:43;7.4;53.4
67893;DHT22;54688;52.376;16.744;2023-02-18T10:24:46;7.5;54.2
67893;DHT22;54688;52.376;16.744;2023-02-18T10:27:51;7.6;53.5
67893;DHT22;54688;52.376;16.744;2023-02-18T10:30:56;7.7;52.9
67893;DHT22;54688;52.376;16.744;2023-02-18T10:34:04;7.9;53.7
67893;DHT22;54688;52.376;16.744;2023-02-18T10:37:25;8;53.9
67893;DHT22;54688;52.376;16.744;2023-02-18T10:40:40;8.2;53.6
67893;DHT22;54688;52.376;16.744;2023-02-18T10:43:50;8.3;54.6
67893;DHT22;54688;52.376;16.744;2023-02-18T10:46:59;8.4;52
67893;DHT22;54688;52.376;16.744;2023-02-18T10:50:12;8.5;54.5
67893;DHT22;54688;52.376;16.744;2023-02-18T10:53:23;8.5;53
67893;DHT22;54688;52.376;16.744;2023-02-18T10:56:33;8.5;54
67893;DHT22;54688;52.376;16.744;2023-02-18T10:59:38;8.4;52.8
67893;DHT22;54688;52.376;16.744;2023-02-18T11:02:40;8.4;53.9
67893;DHT22;54688;52.376;16.744;2023-02-18T11:05:43;8.4;54.1
67893;DHT22;54688;52.376;16.744;2023-02-18T11:08:45;8.4;53.7
67893;DHT22;54688;52.376;16.744;2023-02-18T11:11:48;8.3;53.8
67893;DHT22;54688;52.376;16.744;2023-02-18T11:15:02;8.3;53.7
67893;DHT22;54688;52.376;16.744;2023-02-18T11:18:24;8.3;54.1
67893;DHT22;54688;52.376;16.744;2023-02-18T11:21:33;8.3;54.9
67893;DHT22;54688;52.376;16.744;2023-02-18T11:24:37;8.3;55.6
67893;DHT22;54688;52.376;16.744;2023-02-18T11:27:40;8.2;55
67893;DHT22;54688;52.376;16.744;2023-02-18T11:30:44;8.2;56.2
67893;DHT22;54688;52.376;16.744;2023-02-18T11:33:50;8.1;56.1
67893;DHT22;54688;52.376;16.744;2023-02-18T11:36:54;8;56.6
67893;DHT22;54688;52.376;16.744;2023-02-18T11:40:18;8;57.9
67893;DHT22;54688;52.376;16.744;2023-02-18T11:43:22;7.8;57.7
67893;DHT22;54688;52.376;16.744;2023-02-18T11:46:30;7.7;57.8
67893;DHT22;54688;52.376;16.744;2023-02-18T11:49:33;7.7;57.8
67893;DHT22;54688;52.376;16.744;2023-02-18T11:52:36;7.6;61
67893;DHT22;54688;52.376;16.744;2023-02-18T11:55:40;7.6;62.1
67893;DHT22;54688;52.376;16.744;2023-02-18T11:58:55;7.4;63.1
67893;DHT22;54688;52.376;16.744;2023-02-18T12:02:00;7.3;64
67893;DHT22;54688;52.376;16.744;2023-02-18T12:05:08;7.2;65
67893;DHT22;54688;52.376;16.744;2023-02-18T12:08:16;7.2;67.2
67893;DHT22;54688;52.376;16.744;2023-02-18T12:11:25;7.1;68
67893;DHT22;54688;52.376;16.744;2023-02-18T12:14:29;7.1;68.5
67893;DHT22;54688;52.376;16.744;2023-02-18T12:20:37;7;69.8
67893;DHT22;54688;52.376;16.744;2023-02-18T12:23:55;6.8;71.2
67893;DHT22;54688;52.376;16.744;2023-02-18T12:27:05;6.7;72.7
67893;DHT22;54688;52.376;16.744;2023-02-18T12:30:23;6.5;74.3
67893;DHT22;54688;52.376;16.744;2023-02-18T12:33:35;6.4;75.1
67893;DHT22;54688;52.376;16.744;2023-02-18T12:36:52;6.1;75
67893;DHT22;54688;52.376;16.744;2023-02-18T12:40:09;5.9;75.1
67893;DHT22;54688;52.376;16.744;2023-02-18T12:43:31;5.7;77.8
67893;DHT22;54688;52.376;16.744;2023-02-18T12:46:49;5.5;78.6
67893;DHT22;54688;52.376;16.744;2023-02-18T12:50:10;5.3;79.5
67893;DHT22;54688;52.376;16.744;2023-02-18T12:53:29;5.2;80
67893;DHT22;54688;52.376;16.744;2023-02-18T12:56:45;5.1;80.9
67893;DHT22;54688;52.376;16.744;2023-02-18T13:00:00;5;82.4
67893;DHT22;54688;52.376;16.744;2023-02-18T13:03:26;5;83.6
67893;DHT22;54688;52.376;16.744;2023-02-18T13:06:47;4.9;83.5
67893;DHT22;54688;52.376;16.744;2023-02-18T13:10:11;4.9;84.7
67893;DHT22;54688;52.376;16.744;2023-02-18T13:13:29;4.8;85.3
67893;DHT22;54688;52.376;16.744;2023-02-18T13:16:34;4.8;85.9
67893;DHT22;54688;52.376;16.744;2023-02-18T13:19:40;4.8;85.6
67893;DHT22;54688;52.376;16.744;2023-02-18T13:22:48;4.7;84.4
67893;DHT22;54688;52.376;16.744;2023-02-18T13:25:54;4.6;84.4
67893;DHT22;54688;52.376;16.744;2023-02-18T13:29:06;4.5;84.5
67893;DHT22;54688;52.376;16.744;2023-02-18T13:32:19;4.4;84.6
67893;DHT22;54688;52.376;16.744;2023-02-18T13:35:28;4.3;85.5
67893;DHT22;54688;52.376;16.744;2023-02-18T13:38:46;4.2;85.3
67893;DHT22;54688;52.376;16.744;2023-02-18T13:42:09;4.1;85.6
67893;DHT22;54688;52.376;16.744;2023-02-18T13:45:22;4.1;85.9
67893;DHT22;54688;52.376;16.744;2023-02-18T13:48:26;4.1;86.3
67893;DHT22;54688;52.376;16.744;2023-02-18T13:51:30;4;85.9
67893;DHT22;54688;52.376;16.744;2023-02-18T13:54:36;4;86.4
67893;DHT22;54688;52.376;16.744;2023-02-18T13:57:44;3.9;86.3
67893;DHT22;54688;52.376;16.744;2023-02-18T14:00:49;3.9;86.3
67893;DHT22;54688;52.376;16.744;2023-02-18T14:03:55;3.9;86.8
67893;DHT22;54688;52.376;16.744;2023-02-18T14:07:18;3.9;87.1
67893;DHT22;54688;52.376;16.744;2023-02-18T14:10:30;3.9;87.1
67893;DHT22;54688;52.376;16.744;2023-02-18T14:13:37;3.9;87.2
67893;DHT22;54688;52.376;16.744;2023-02-18T14:17:11;3.8;86.9
67893;DHT22;54688;52.376;16.744;2023-02-18T14:20:46;3.8;87.3
67893;DHT22;54688;52.376;16.744;2023-02-18T14:23:54;3.9;87.1
67893;DHT22;54688;52.376;16.744;2023-02-18T14:26:59;3.9;87.8
67893;DHT22;54688;52.376;16.744;2023-02-18T14:30:17;3.9;88.1
67893;DHT22;54688;52.376;16.744;2023-02-18T14:33:25;3.8;87.8
67893;DHT22;54688;52.376;16.744;2023-02-18T14:36:32;3.8;87.9
67893;DHT22;54688;52.376;16.744;2023-02-18T14:39:43;3.9;88
67893;DHT22;54688;52.376;16.744;2023-02-18T14:42:59;3.9;88
67893;DHT22;54688;52.376;16.744;2023-02-18T14:46:09;4;88.5
67893;DHT22;54688;52.376;16.744;2023-02-18T14:49:22;4;87.6
67893;DHT22;54688;52.376;16.744;2023-02-18T14:52:36;4;88.6
67893;DHT22;54688;52.376;16.744;2023-02-18T14:55:42;4.1;88.6
67893;DHT22;54688;52.376;16.744;2023-02-18T14:58:47;4.1;88.5
67893;DHT22;54688;52.376;16.744;2023-02-18T15:01:53;4.1;88.1
67893;DHT22;54688;52.376;16.744;2023-02-18T15:05:06;4.1;87.9
67893;DHT22;54688;52.376;16.744;2023-02-18T15:08:15;4;88
67893;DHT22;54688;52.376;16.744;2023-02-18T15:11:18;4.1;88
67893;DHT22;54688;52.376;16.744;2023-02-18T15:14:23;4;87.8
67893;DHT22;54688;52.376;16.744;2023-02-18T15:20:28;3.8;87.6
67893;DHT22;54688;52.376;16.744;2023-02-18T15:23:34;3.9;87.9
67893;DHT22;54688;52.376;16.744;2023-02-18T15:26:40;3.8;88.1
67893;DHT22;54688;52.376;16.744;2023-02-18T15:29:43;3.8;88.2
67893;DHT22;54688;52.376;16.744;2023-02-18T15:32:51;3.7;88.2
67893;DHT22;54688;52.376;16.744;2023-02-18T15:35:59;3.7;88.2
67893;DHT22;54688;52.376;16.744;2023-02-18T15:39:01;3.6;88.4
67893;DHT22;54688;52.376;16.744;2023-02-18T15:42:06;3.6;88.6
67893;DHT22;54688;52.376;16.744;2023-02-18T15:45:14;3.6;88.5
67893;DHT22;54688;52.376;16.744;2023-02-18T15:48:23;3.5;88.3
67893;DHT22;54688;52.376;16.744;2023-02-18T15:51:30;3.5;88.6
67893;DHT22;54688;52.376;16.744;2023-02-18T15:54:33;3.5;88.9
67893;DHT22;54688;52.376;16.744;2023-02-18T15:57:40;3.5;89
67893;DHT22;54688;52.376;16.744;2023-02-18T16:00:46;3.5;89
67893;DHT22;54688;52.376;16.744;2023-02-18T16:03:50;3.4;89
67893;DHT22;54688;52.376;16.744;2023-02-18T16:06:53;3.5;89.2
67893;DHT22;54688;52.376;16.744;2023-02-18T16:10:06;3.5;89.3
67893;DHT22;54688;52.376;16.744;2023-02-18T16:13:11;3.5;89.1
67893;DHT22;54688;52.376;16.744;2023-02-18T16:16:19;3.5;89.1
67893;DHT22;54688;52.376;16.744;2023-02-18T16:19:24;3.5;89.8
67893;DHT22;54688;52.376;16.744;2023-02-18T16:22:31;3.5;89
67893;DHT22;54688;52.376;16.744;2023-02-18T16:25:38;3.4;88.9
67893;DHT22;54688;52.376;16.744;2023-02-18T16:28:44;3.4;88.7
67893;DHT22;54688;52.376;16.744;2023-02-18T16:31:46;3.3;88.8
67893;DHT22;54688;52.376;16.744;2023-02-18T16:34:48;3.4;89.5
67893;DHT22;54688;52.376;16.744;2023-02-18T16:37:51;3.4;89.1
67893;DHT22;54688;52.376;16.744;2023-02-18T16:40:54;3.4;89.2
67893;DHT22;54688;52.376;16.744;2023-02-18T16:43:56;3.4;89.1
67893;DHT22;54688;52.376;16.744;2023-02-18T16:46:58;3.4;89.1
67893;DHT22;54688;52.376;16.744;2023-02-18T16:50:00;3.4;89
67893;DHT22;54688;52.376;16.744;2023-02-18T16:53:03;3.3;88.8
67893;DHT22;54688;52.376;16.744;2023-02-18T16:56:05;3.4;88.9
67893;DHT22;54688;52.376;16.744;2023-02-18T16:59:13;3.4;88.6
67893;DHT22;54688;52.376;16.744;2023-02-18T17:02:17;3.5;88.6
67893;DHT22;54688;52.376;16.744;2023-02-18T17:05:22;3.5;88.6
67893;DHT22;54688;52.376;16.744;2023-02-18T17:08:26;3.4;88
67893;DHT22;54688;52.376;16.744;2023-02-18T17:11:29;3.4;88
67893;DHT22;54688;52.376;16.744;2023-02-18T17:14:32;3.4;88
67893;DHT22;54688;52.376;16.744;2023-02-18T17:17:35;3.3;88
67893;DHT22;54688;52.376;16.744;2023-02-18T17:20:37;3.3;89.1
67893;DHT22;54688;52.376;16.744;2023-02-18T17:23:41;3.3;88.3
67893;DHT22;54688;52.376;16.744;2023-02-18T17:26:43;3.3;88.3
67893;DHT22;54688;52.376;16.744;2023-02-18T17:29:46;3.2;88.2
67893;DHT22;54688;52.376;16.744;2023-02-18T17:32:49;3.2;88.3
67893;DHT22;54688;52.376;16.744;2023-02-18T17:35:51;3.2;88.3
67893;DHT22;54688;52.376;16.744;2023-02-18T17:38:53;3.2;88.2
67893;DHT22;54688;52.376;16.744;2023-02-18T17:41:55;3.1;88.2
67893;DHT22;54688;52.376;16.744;2023-02-18T17:44:57;3.1;88.3
67893;DHT22;54688;52.376;16.744;2023-02-18T17:48:02;3.1;88.6
67893;DHT22;54688;52.376;16.744;2023-02-18T17:51:04;3.1;88.6
67893;DHT22;54688;52.376;16.744;2023-02-18T17:54:09;3.2;88.4
67893;DHT22;54688;52.376;16.744;2023-02-18T17:57:13;3.2;88.2
67893;DHT22;54688;52.376;16.744;2023-02-18T18:00:16;3.1;88
67893;DHT22;54688;52.376;16.744;2023-02-18T18:03:22;3.1;88.1
67893;DHT22;54688;52.376;16.744;2023-02-18T18:09:24;3;88.4
67893;DHT22;54688;52.376;16.744;2023-02-18T18:12:26;3;88.6
67893;DHT22;54688;52.376;16.744;2023-02-18T18:15:31;3;88.8
67893;DHT22;54688;52.376;16.744;2023-02-18T18:18:36;3.1;88.9
67893;DHT22;54688;52.376;16.744;2023-02-18T18:21:39;3.1;88.9
67893;DHT22;54688;52.376;16.744;2023-02-18T18:24:41;3.1;88.7
67893;DHT22;54688;52.376;16.744;2023-02-18T18:27:43;3.2;88.6
67893;DHT22;54688;52.376;16.744;2023-02-18T18:30:46;3.2;88.4
67893;DHT22;54688;52.376;16.744;2023-02-18T18:33:50;3.2;88.3
67893;DHT22;54688;52.376;16.744;2023-02-18T18:36:52;3.2;87.5
67893;DHT22;54688;52.376;16.744;2023-02-18T18:39:55;3.2;88.4
67893;DHT22;54688;52.376;16.744;2023-02-18T18:42:58;3.2;88.4
67893;DHT22;54688;52.376;16.744;2023-02-18T18:46:01;3.2;88.4
67893;DHT22;54688;52.376;16.744;2023-02-18T18:49:04;3.2;88.4
67893;DHT22;54688;52.376;16.744;2023-02-18T18:52:07;3.2;88.5
67893;DHT22;54688;52.376;16.744;2023-02-18T18:55:18;3.2;88.4
67893;DHT22;54688;52.376;16.744;2023-02-18T18:58:22;3.2;88.5
67893;DHT22;54688;52.376;16.744;2023-02-18T19:01:24;3.2;88.3
67893;DHT22;54688;52.376;16.744;2023-02-18T19:04:26;3.2;88.4
67893;DHT22;54688;52.376;16.744;2023-02-18T19:07:28;3.2;88.4
67893;DHT22;54688;52.376;16.744;2023-02-18T19:10:31;3.2;88.3
67893;DHT22;54688;52.376;16.744;2023-02-18T19:13:35;3.2;88.2
67893;DHT22;54688;52.376;16.744;2023-02-18T19:16:38;3.2;88.1
67893;DHT22;54688;52.376;16.744;2023-02-18T19:19:42;3.2;87.8
67893;DHT22;54688;52.376;16.744;2023-02-18T19:22:44;3.2;88
67893;DHT22;54688;52.376;16.744;2023-02-18T19:28:46;3.1;87.6
67893;DHT22;54688;52.376;16.744;2023-02-18T19:31:48;3.1;87.6
67893;DHT22;54688;52.376;16.744;2023-02-18T19:34:51;3;88.2
67893;DHT22;54688;52.376;16.744;2023-02-18T19:37:53;3;88
67893;DHT22;54688;52.376;16.744;2023-02-18T19:40:55;3.1;88
67893;DHT22;54688;52.376;16.744;2023-02-18T19:43:58;3;88.4
67893;DHT22;54688;52.376;16.744;2023-02-18T19:47:01;3;87.9
67893;DHT22;54688;52.376;16.744;2023-02-18T19:50:05;3;87.9
67893;DHT22;54688;52.376;16.744;2023-02-18T19:53:08;3;87.8
67893;DHT22;54688;52.376;16.744;2023-02-18T19:56:11;3;87.7
67893;DHT22;54688;52.376;16.744;2023-02-18T19:59:13;3;87.8
67893;DHT22;54688;52.376;16.744;2023-02-18T20:02:16;3;87.7
67893;DHT22;54688;52.376;16.744;2023-02-18T20:05:20;2.9;87.8
67893;DHT22;54688;52.376;16.744;2023-02-18T20:08:22;2.9;87.8
67893;DHT22;54688;52.376;16.744;2023-02-18T20:11:24;2.9;88
67893;DHT22;54688;52.376;16.744;2023-02-18T20:14:26;2.9;88
67893;DHT22;54688;52.376;16.744;2023-02-18T20:17:28;2.8;87.9
67893;DHT22;54688;52.376;16.744;2023-02-18T20:20:31;2.8;87.8
67893;DHT22;54688;52.376;16.744;2023-02-18T20:23:33;2.7;87.6
67893;DHT22;54688;52.376;16.744;2023-02-18T20:26:35;2.6;87.6
67893;DHT22;54688;52.376;16.744;2023-02-18T20:29:37;2.6;87.7
67893;DHT22;54688;52.376;16.744;2023-02-18T20:32:39;2.5;87.9
67893;DHT22;54688;52.376;16.744;2023-02-18T20:35:41;2.5;88
67893;DHT22;54688;52.376;16.744;2023-02-18T20:38:47;2.4;87.9
67893;DHT22;54688;52.376;16.744;2023-02-18T20:41:50;2.3;87.9